createdAt,value
2022-08-07T00:02:35.297Z,0.40
2022-08-07T00:04:04.308Z,0.35
2022-08-07T00:06:33.882Z,0.45
2022-08-07T00:09:17.018Z,0.43
2022-08-07T00:11:56.152Z,0.50
2022-08-07T00:14:30.034Z,0.52
2022-08-07T00:16:59.375Z,0.40
2022-08-07T00:20:00.341Z,0.40
2022-08-07T00:22:24.536Z,0.68
2022-08-07T00:25:07.317Z,0.52
2022-08-07T00:27:52.395Z,0.40
2022-08-07T00:30:27.059Z,0.40
2022-08-07T00:32:59.570Z,0.40
2022-08-07T00:35:30.539Z,0.45
2022-08-07T00:37:58.699Z,0.40
2022-08-07T00:40:39.916Z,0.40
2022-08-07T00:43:10.561Z,0.37
2022-08-07T00:45:56.637Z,0.40
2022-08-07T00:48:25.046Z,0.33
2022-08-07T00:50:58.687Z,0.43
2022-08-07T00:53:27.105Z,0.35
2022-08-07T00:56:07.404Z,0.40
2022-08-07T00:58:47.343Z,0.50
2022-08-07T01:01:17.373Z,0.50
2022-08-07T01:03:57.236Z,0.43
2022-08-07T01:06:28.071Z,0.45
2022-08-07T01:08:58.421Z,0.50
2022-08-07T01:12:23.538Z,0.40
2022-08-07T01:14:28.770Z,0.43
2022-08-07T01:16:57.169Z,0.60
2022-08-07T01:19:24.986Z,0.53
2022-08-07T01:21:53.519Z,0.57
2022-08-07T01:24:22.663Z,0.40
2022-08-07T01:26:52.242Z,0.50
2022-08-07T01:29:21.952Z,0.40
2022-08-07T01:31:50.165Z,0.40
2022-08-07T01:34:20.298Z,0.40
2022-08-07T01:36:58.255Z,0.40
2022-08-07T01:39:40.374Z,0.47
2022-08-07T01:42:38.373Z,0.50
2022-08-07T01:45:03.258Z,0.40
2022-08-07T01:48:20.999Z,0.40
2022-08-07T01:50:22.676Z,0.30
2022-08-07T01:52:58.382Z,0.40
2022-08-07T01:55:30.709Z,0.40
2022-08-07T01:58:27.181Z,0.40
2022-08-07T02:01:10.027Z,0.40
2022-08-07T02:03:51.458Z,0.67
2022-08-07T02:06:31.905Z,0.43
2022-08-07T02:09:03.732Z,0.52
2022-08-07T02:12:02.786Z,0.65
2022-08-07T02:14:40.387Z,0.40
2022-08-07T02:17:09.573Z,0.30
2022-08-07T02:20:04.819Z,0.30
2022-08-07T02:22:27.869Z,0.30
2022-08-07T02:24:56.359Z,0.40
2022-08-07T02:27:25.111Z,0.50
2022-08-07T02:29:54.760Z,0.40
2022-08-07T02:32:23.472Z,0.80
2022-08-07T02:34:54.916Z,0.40
2022-08-07T02:37:25.563Z,0.40
2022-08-07T02:40:12.059Z,0.30
2022-08-07T02:42:41.825Z,0.35
2022-08-07T02:45:57.720Z,0.35
2022-08-07T02:47:59.324Z,0.40
2022-08-07T02:50:31.751Z,0.37
2022-08-07T02:53:06.407Z,0.50
2022-08-07T02:56:03.354Z,0.57
2022-08-07T02:58:23.511Z,0.40
2022-08-07T03:00:56.578Z,0.40
2022-08-07T03:03:24.366Z,0.60
2022-08-07T03:05:57.358Z,0.30
2022-08-07T03:08:26.890Z,0.30
2022-08-07T03:10:56.994Z,0.30
2022-08-07T03:13:24.238Z,0.40
2022-08-07T03:15:56.406Z,0.50
2022-08-07T03:18:36.173Z,0.40
2022-08-07T03:21:08.734Z,0.30
2022-08-07T03:24:18.002Z,0.30
2022-08-07T03:26:29.063Z,0.40
2022-08-07T03:28:56.238Z,0.43
2022-08-07T03:31:43.416Z,0.30
2022-08-07T03:34:18.625Z,0.30
2022-08-07T03:36:51.485Z,0.40
2022-08-07T03:39:46.485Z,0.30
2022-08-07T03:42:07.690Z,0.40
2022-08-07T03:44:37.025Z,0.40
2022-08-07T03:47:11.042Z,0.43
2022-08-07T03:49:38.953Z,0.30
2022-08-07T03:52:22.810Z,0.30
2022-08-07T03:54:57.427Z,0.40
2022-08-07T03:58:57.172Z,0.40
2022-08-07T04:00:14.966Z,0.40
2022-08-07T04:02:47.487Z,0.45
2022-08-07T04:05:20.294Z,0.37
2022-08-07T04:07:56.068Z,0.43
2022-08-07T04:10:23.132Z,0.40
2022-08-07T04:12:51.280Z,0.37
2022-08-07T04:15:19.080Z,0.40
2022-08-07T04:18:31.433Z,0.30
2022-08-07T04:20:35.158Z,0.30
2022-08-07T04:23:06.595Z,0.30
2022-08-07T04:25:39.349Z,0.40
2022-08-07T04:28:10.321Z,0.50
2022-08-07T04:30:55.562Z,0.30
2022-08-07T04:33:24.794Z,0.40
2022-08-07T04:35:53.976Z,0.30
2022-08-07T04:38:22.167Z,0.30
2022-08-07T04:40:51.954Z,0.30
2022-08-07T04:44:11.300Z,0.30
2022-08-07T04:46:34.223Z,0.30
2022-08-07T04:49:37.828Z,0.40
2022-08-07T04:52:31.661Z,0.40
2022-08-07T04:58:23.667Z,0.40
2022-08-07T04:58:47.679Z,0.40
2022-08-07T05:01:30.446Z,0.40
2022-08-07T05:04:19.167Z,0.55
2022-08-07T05:06:53.182Z,0.32
2022-08-07T05:09:45.518Z,0.50
2022-08-07T05:12:26.925Z,0.40
2022-08-07T05:15:16.080Z,0.50
2022-08-07T05:17:56.033Z,0.30
2022-08-07T05:20:27.309Z,0.40
2022-08-07T05:22:58.024Z,0.37
2022-08-07T05:25:25.650Z,0.40
2022-08-07T05:28:20.052Z,0.50
2022-08-07T05:30:52.107Z,0.40
2022-08-07T05:33:21.321Z,0.50
2022-08-07T05:35:50.700Z,0.30
2022-08-07T05:38:59.848Z,0.35
2022-08-07T05:41:14.245Z,0.40
2022-08-07T05:44:08.307Z,0.60
2022-08-07T05:46:37.990Z,0.40
2022-08-07T05:49:11.941Z,0.40
2022-08-07T05:51:42.352Z,0.40
2022-08-07T05:54:30.242Z,0.50
2022-08-07T05:56:58.844Z,0.50
2022-08-07T05:59:27.508Z,0.40
2022-08-07T06:01:57.410Z,0.40
2022-08-07T06:04:30.185Z,0.40
2022-08-07T06:07:03.710Z,0.60
2022-08-07T06:10:03.762Z,0.30
2022-08-07T06:12:21.145Z,0.40
2022-08-07T06:15:05.419Z,0.50
2022-08-07T06:17:37.816Z,0.45
2022-08-07T06:20:12.442Z,0.40
2022-08-07T06:22:41.130Z,0.40
2022-08-07T06:25:17.670Z,0.80
2022-08-07T06:28:01.641Z,0.50
2022-08-07T06:30:35.418Z,0.75
2022-08-07T06:33:05.562Z,0.60
2022-08-07T06:35:47.899Z,0.50
2022-08-07T06:38:30.409Z,0.43
2022-08-07T06:40:59.446Z,0.50
2022-08-07T06:43:26.835Z,0.40
2022-08-07T06:46:06.171Z,0.57
2022-08-07T06:48:38.863Z,0.30
2022-08-07T06:51:13.502Z,0.50
2022-08-07T06:55:29.352Z,0.43
2022-08-07T06:56:48.896Z,0.65
2022-08-07T07:00:13.059Z,0.40
2022-08-07T07:02:48.894Z,0.30
2022-08-07T07:05:09.552Z,0.43
2022-08-07T07:08:00.148Z,0.80
2022-08-07T07:10:36.742Z,0.40
2022-08-07T07:13:56.526Z,0.60
2022-08-07T07:16:09.241Z,0.50
2022-08-07T07:18:48.315Z,0.50
2022-08-07T07:21:19.945Z,0.40
2022-08-07T07:24:06.342Z,0.40
2022-08-07T07:26:37.231Z,0.52
2022-08-07T07:29:39.277Z,0.50
2022-08-07T07:32:14.570Z,0.77
2022-08-07T07:34:53.089Z,0.60
2022-08-07T07:37:44.258Z,0.60
2022-08-07T07:40:14.719Z,0.50
2022-08-07T07:42:51.391Z,0.60
2022-08-07T07:46:38.504Z,0.70
2022-08-07T07:48:24.168Z,0.55
2022-08-07T07:51:08.143Z,0.60
2022-08-07T07:53:52.139Z,0.65
2022-08-07T07:56:29.959Z,0.50
2022-08-07T07:59:03.342Z,0.80
2022-08-07T08:02:02.128Z,0.62
2022-08-07T08:04:25.762Z,0.80
2022-08-07T08:06:55.244Z,0.60
2022-08-07T08:09:29.429Z,0.70
2022-08-07T08:12:01.939Z,0.70
2022-08-07T08:14:36.065Z,0.60
2022-08-07T08:17:55.632Z,0.65
2022-08-07T08:20:17.597Z,0.60
2022-08-07T08:23:01.774Z,0.80
2022-08-07T08:25:50.363Z,0.70
2022-08-07T08:28:38.281Z,0.93
2022-08-07T08:31:14.851Z,0.60
2022-08-07T08:33:49.656Z,0.77
2022-08-07T08:36:29.564Z,0.60
2022-08-07T08:39:01.610Z,0.73
2022-08-07T08:41:57.819Z,0.85
2022-08-07T08:44:38.321Z,1.00
2022-08-07T08:47:25.203Z,0.90
2022-08-07T08:50:17.601Z,0.70
2022-08-07T08:53:20.404Z,0.60
2022-08-07T08:55:54.609Z,0.80
2022-08-07T08:58:57.266Z,0.95
2022-08-07T09:01:49.178Z,0.80
2022-08-07T09:04:36.636Z,0.70
2022-08-07T09:07:28.920Z,0.75
2022-08-07T09:10:11.537Z,0.70
2022-08-07T09:12:59.631Z,0.60
2022-08-07T09:16:24.319Z,0.80
2022-08-07T09:18:53.114Z,0.80
2022-08-07T09:22:09.875Z,0.90
2022-08-07T09:25:07.158Z,0.77
2022-08-07T09:27:59.753Z,0.70
2022-08-07T09:30:46.425Z,0.80
2022-08-07T09:33:52.627Z,0.90
2022-08-07T09:36:31.179Z,0.70
2022-08-07T09:39:53.642Z,0.75
2022-08-07T09:42:32.926Z,1.15
2022-08-07T09:47:49.623Z,0.90
2022-08-07T09:48:50.265Z,0.75
2022-08-07T09:52:16.435Z,0.70
2022-08-07T09:54:48.241Z,0.60
2022-08-07T09:57:30.025Z,0.90
2022-08-07T10:00:18.847Z,1.00
2022-08-07T10:03:08.150Z,0.90
2022-08-07T10:06:05.496Z,0.88
2022-08-07T10:08:57.649Z,0.77
2022-08-07T10:12:01.365Z,0.80
2022-08-07T10:15:00.444Z,1.00
2022-08-07T10:18:03.006Z,0.93
2022-08-07T10:21:00.749Z,0.88
2022-08-07T10:24:06.585Z,1.00
2022-08-07T10:27:00.478Z,1.30
2022-08-07T10:30:06.558Z,1.33
2022-08-07T10:32:59.884Z,0.90
2022-08-07T10:35:56.534Z,1.20
2022-08-07T10:38:47.929Z,1.00
2022-08-07T10:41:47.127Z,0.85
2022-08-07T10:44:37.675Z,0.90
2022-08-07T10:47:19.440Z,1.20
2022-08-07T10:50:33.286Z,1.00
2022-08-07T10:53:10.480Z,1.00
2022-08-07T10:56:03.281Z,1.25
2022-08-07T10:58:59.601Z,0.90
2022-08-07T11:02:04.701Z,0.80
2022-08-07T11:04:57.625Z,1.15
2022-08-07T11:07:58.582Z,1.10
2022-08-07T11:10:57.957Z,1.30
2022-08-07T11:14:44.578Z,1.10
2022-08-07T11:16:30.502Z,3.67
2022-08-07T11:19:11.974Z,1.10
2022-08-07T11:22:00.215Z,1.20
2022-08-07T11:24:51.875Z,1.23
2022-08-07T11:28:01.300Z,1.05
2022-08-07T11:30:41.862Z,1.20
2022-08-07T11:33:58.463Z,1.10
2022-08-07T11:36:49.909Z,1.20
2022-08-07T11:39:59.361Z,1.10
2022-08-07T11:42:41.808Z,1.12
2022-08-07T11:45:35.362Z,1.27
2022-08-07T11:48:29.037Z,1.35
2022-08-07T11:51:44.726Z,1.20
2022-08-07T11:54:33.708Z,1.40
2022-08-07T11:57:20.648Z,1.55
2022-08-07T12:00:28.463Z,1.12
2022-08-07T12:03:45.298Z,1.20
2022-08-07T12:06:37.134Z,1.43
2022-08-07T12:09:23.285Z,1.45
2022-08-07T12:12:12.557Z,0.90
2022-08-07T12:14:55.528Z,1.20
2022-08-07T12:18:03.077Z,1.40
2022-08-07T12:20:52.810Z,1.30
2022-08-07T12:24:07.102Z,1.25
2022-08-07T12:26:49.587Z,1.30
2022-08-07T12:29:40.179Z,1.50
2022-08-07T12:32:18.225Z,1.10
2022-08-07T12:34:49.353Z,1.20
2022-08-07T12:37:28.317Z,1.30
2022-08-07T12:40:30.023Z,1.20
2022-08-07T12:43:03.359Z,1.23
2022-08-07T12:46:16.047Z,1.12
2022-08-07T12:48:55.578Z,1.20
2022-08-07T12:51:33.428Z,0.90
2022-08-07T12:54:41.160Z,1.33
2022-08-07T12:57:09.982Z,1.12
2022-08-07T12:59:54.483Z,1.20
2022-08-07T13:02:49.774Z,1.20
2022-08-07T13:06:03.355Z,1.20
2022-08-07T13:08:55.518Z,1.35
2022-08-07T13:12:03.082Z,1.10
2022-08-07T13:14:55.415Z,1.10
2022-08-07T13:17:40.600Z,1.15
2022-08-07T13:20:51.017Z,1.20
2022-08-07T13:24:01.138Z,1.10
2022-08-07T13:26:46.597Z,1.00
2022-08-07T13:29:21.145Z,1.10
2022-08-07T13:31:57.406Z,1.27
2022-08-07T13:34:37.907Z,1.00
2022-08-07T13:37:20.136Z,1.10
2022-08-07T13:40:35.265Z,1.25
2022-08-07T13:43:00.164Z,1.37
2022-08-07T13:46:10.906Z,1.10
2022-08-07T13:48:27.877Z,1.00
2022-08-07T13:51:20.496Z,2.27
2022-08-07T13:54:01.807Z,1.40
2022-08-07T13:56:35.698Z,1.12
2022-08-07T13:59:12.727Z,1.63
2022-08-07T14:02:19.570Z,1.15
2022-08-07T14:05:00.729Z,1.17
2022-08-07T14:07:30.637Z,1.50
2022-08-07T14:10:16.448Z,1.97
2022-08-07T14:12:54.815Z,1.00
2022-08-07T14:15:39.421Z,1.05
2022-08-07T14:18:28.768Z,1.10
2022-08-07T14:22:03.171Z,1.10
2022-08-07T14:24:25.536Z,1.20
2022-08-07T14:26:56.102Z,1.30
2022-08-07T14:30:05.824Z,1.42
2022-08-07T14:32:26.884Z,1.57
2022-08-07T14:34:55.360Z,1.50
2022-08-07T14:37:32.934Z,1.17
2022-08-07T14:40:16.616Z,1.55
2022-08-07T14:43:55.645Z,1.33
2022-08-07T14:45:49.659Z,1.48
2022-08-07T14:48:20.487Z,1.30
2022-08-07T14:50:50.937Z,1.20
2022-08-07T14:54:06.613Z,1.30
2022-08-07T14:56:13.049Z,1.00
2022-08-07T14:58:45.109Z,1.33
2022-08-07T15:01:21.624Z,1.70
2022-08-07T15:03:52.349Z,1.20
2022-08-07T15:06:25.883Z,1.00
2022-08-07T15:08:54.861Z,0.97
2022-08-07T15:14:57.927Z,1.40
2022-08-07T15:17:32.703Z,1.00
2022-08-07T15:23:20.285Z,1.23
2022-08-07T15:25:52.288Z,1.02
2022-08-07T15:28:35.117Z,1.00
2022-08-07T15:31:10.554Z,0.90
2022-08-07T15:37:04.145Z,1.00
2022-08-07T15:39:16.083Z,1.00
2022-08-07T15:42:48.248Z,1.10
2022-08-07T15:45:24.958Z,1.00
2022-08-07T15:48:30.381Z,1.25
2022-08-07T15:51:08.428Z,1.20
2022-08-07T15:53:52.918Z,1.40
2022-08-07T15:56:24.958Z,1.10
2022-08-07T15:58:59.219Z,1.30
2022-08-07T16:01:38.636Z,0.80
2022-08-07T16:04:14.730Z,1.00
2022-08-07T16:06:54.248Z,1.00
2022-08-07T16:09:42.289Z,1.20
2022-08-07T16:12:12.488Z,1.08
2022-08-07T16:15:04.024Z,1.10
2022-08-07T16:18:01.946Z,1.20
2022-08-07T16:21:42.988Z,0.90
2022-08-07T16:23:59.357Z,1.42
2022-08-07T16:26:31.143Z,0.90
2022-08-07T16:30:06.926Z,1.33
2022-08-07T16:32:00.809Z,1.00
2022-08-07T16:34:53.063Z,0.98
2022-08-07T16:38:05.786Z,1.08
2022-08-07T16:40:30.748Z,0.80
2022-08-07T16:43:11.638Z,0.90
2022-08-07T16:50:29.368Z,0.98
2022-08-07T16:52:35.401Z,1.12
2022-08-07T16:55:47.031Z,1.03
2022-08-07T16:58:23.527Z,0.95
2022-08-07T17:01:01.045Z,1.10
2022-08-07T17:04:00.082Z,0.93
2022-08-07T17:07:03.010Z,0.93
2022-08-07T17:10:06.724Z,0.70
2022-08-07T17:12:53.030Z,1.10
2022-08-07T17:15:44.289Z,1.00
2022-08-07T17:18:51.785Z,1.20
2022-08-07T17:21:27.447Z,0.90
2022-08-07T17:24:29.478Z,0.80
2022-08-07T17:27:36.630Z,0.70
2022-08-07T17:30:20.596Z,0.80
2022-08-07T17:34:08.496Z,0.70
2022-08-07T17:36:58.387Z,1.03
2022-08-07T17:39:57.809Z,0.80
2022-08-07T17:42:59.648Z,0.80
2022-08-07T17:45:38.211Z,1.00
2022-08-07T17:48:31.061Z,0.93
2022-08-07T17:51:01.693Z,1.00
2022-08-07T17:54:01.516Z,0.60
2022-08-07T17:56:35.215Z,0.90
2022-08-07T17:59:22.750Z,0.82
2022-08-07T18:02:09.317Z,0.87
2022-08-07T18:04:45.489Z,1.00
2022-08-07T18:07:20.081Z,0.93
2022-08-07T18:10:05.945Z,0.90
2022-08-07T18:12:53.311Z,1.10
2022-08-07T18:15:32.540Z,0.90
2022-08-07T18:19:02.627Z,0.98
2022-08-07T18:21:37.133Z,1.10
2022-08-07T18:24:34.689Z,1.37
2022-08-07T18:27:21.771Z,0.88
2022-08-07T18:30:05.652Z,0.70
2022-08-07T18:33:10.381Z,1.00
2022-08-07T18:36:06.021Z,0.93
2022-08-07T18:38:56.988Z,1.00
2022-08-07T18:41:46.629Z,1.20
2022-08-07T18:45:40.093Z,0.95
2022-08-07T18:48:00.795Z,0.87
2022-08-07T18:50:47.158Z,0.98
2022-08-07T18:53:39.259Z,0.80
2022-08-07T18:56:14.699Z,0.90
2022-08-07T18:59:06.119Z,0.98
2022-08-07T19:02:19.029Z,1.00
2022-08-07T19:04:57.809Z,1.15
2022-08-07T19:07:58.865Z,0.73
2022-08-07T19:10:51.314Z,0.77
2022-08-07T19:13:37.898Z,0.95
2022-08-07T19:17:05.513Z,0.80
2022-08-07T19:19:53.422Z,0.80
2022-08-07T19:22:30.765Z,0.80
2022-08-07T19:24:58.646Z,0.82
2022-08-07T19:30:53.876Z,0.80
2022-08-07T19:30:58.703Z,0.57
2022-08-07T19:33:15.631Z,0.82
2022-08-07T19:35:50.377Z,1.23
2022-08-07T19:38:19.153Z,0.77
2022-08-07T19:40:51.316Z,0.80
2022-08-07T19:43:44.506Z,0.80
2022-08-07T19:46:15.741Z,0.57
2022-08-07T19:48:53.692Z,0.60
2022-08-07T19:51:52.863Z,0.70
2022-08-07T19:54:43.882Z,0.80
2022-08-07T19:58:02.674Z,0.70
2022-08-07T19:59:58.624Z,0.50
2022-08-07T20:02:40.282Z,0.60
2022-08-07T20:05:27.926Z,0.80
2022-08-07T20:08:01.094Z,0.77
2022-08-07T20:10:55.486Z,0.65
2022-08-07T20:13:31.975Z,0.63
2022-08-07T20:16:01.286Z,0.77
2022-08-07T20:18:32.894Z,0.70
2022-08-07T20:21:21.045Z,0.80
2022-08-07T20:23:54.116Z,0.60
2022-08-07T20:26:32.468Z,0.60
2022-08-07T20:29:46.643Z,0.70
2022-08-07T20:31:58.044Z,0.60
2022-08-07T20:34:49.459Z,0.60
2022-08-07T20:37:15.213Z,0.60
2022-08-07T20:40:04.200Z,0.45
2022-08-07T20:42:30.611Z,0.60
2022-08-07T20:45:01.104Z,0.70
2022-08-07T20:47:55.635Z,0.70
2022-08-07T20:50:20.812Z,0.80
2022-08-07T20:52:51.266Z,0.73
2022-08-07T20:55:23.563Z,0.90
2022-08-07T20:58:02.283Z,0.50
2022-08-07T21:00:42.980Z,0.53
2022-08-07T21:03:14.495Z,0.65
2022-08-07T21:05:55.923Z,0.52
2022-08-07T21:08:38.079Z,0.50
2022-08-07T21:11:12.220Z,0.57
2022-08-07T21:14:16.679Z,0.80
2022-08-07T21:18:00.460Z,0.75
2022-08-07T21:20:05.129Z,0.60
2022-08-07T21:22:38.548Z,0.50
2022-08-07T21:25:16.193Z,0.50
2022-08-07T21:28:07.856Z,0.40
2022-08-07T21:30:50.087Z,0.45
2022-08-07T21:33:21.646Z,0.40
2022-08-07T21:36:32.178Z,0.55
2022-08-07T21:39:46.469Z,1.15
2022-08-07T21:42:48.420Z,0.40
2022-08-07T21:46:07.512Z,0.40
2022-08-07T21:48:32.101Z,0.40
2022-08-07T21:51:25.054Z,0.40
2022-08-07T21:53:59.348Z,0.40
2022-08-07T21:57:06.302Z,0.40
2022-08-07T22:00:03.518Z,0.40
2022-08-07T22:03:05.735Z,0.50
2022-08-07T22:05:56.755Z,0.40
2022-08-07T22:08:27.736Z,0.40
2022-08-07T22:10:59.686Z,0.45
2022-08-07T22:13:52.759Z,0.50
2022-08-07T22:16:43.305Z,0.35
2022-08-07T22:19:23.717Z,0.40
2022-08-07T22:22:20.796Z,0.40
2022-08-07T22:25:02.975Z,0.30
2022-08-07T22:28:20.215Z,0.40
2022-08-07T22:30:52.746Z,0.90
2022-08-07T22:33:52.879Z,0.50
2022-08-07T22:36:38.443Z,0.40
2022-08-07T22:39:13.350Z,0.50
2022-08-07T22:42:03.697Z,0.57
2022-08-07T22:44:57.979Z,0.70
2022-08-07T22:48:00.956Z,0.40
2022-08-07T22:50:33.460Z,0.35
2022-08-07T22:53:19.148Z,0.40
2022-08-07T22:56:08.702Z,0.50
2022-08-07T22:59:10.345Z,0.40
2022-08-07T23:02:19.944Z,0.32
2022-08-07T23:06:08.625Z,0.40
2022-08-07T23:08:07.197Z,0.50
2022-08-07T23:11:13.131Z,0.50
2022-08-07T23:14:14.999Z,0.40
2022-08-07T23:17:15.612Z,0.40
2022-08-07T23:20:51.591Z,0.30
2022-08-07T23:24:05.317Z,0.40
2022-08-07T23:26:23.539Z,0.40
2022-08-07T23:29:04.339Z,0.30
2022-08-07T23:34:19.767Z,0.40
2022-08-07T23:35:27.423Z,0.50
2022-08-07T23:38:19.306Z,0.60
2022-08-07T23:41:33.712Z,0.40
2022-08-07T23:44:24.752Z,0.37
2022-08-07T23:47:08.761Z,0.32
2022-08-07T23:49:52.861Z,0.30
2022-08-07T23:52:57.920Z,0.30
2022-08-07T23:55:53.110Z,0.70
2022-08-07T23:58:38.185Z,0.40
